sensor_id;sensor_type;location;lat;lon;timestamp;temperature;humidity
8778;DHT22;4425;50.872;4.712;2023-03-31T00:04:59;12.00;99.90
8778;DHT22;4425;50.872;4.712;2023-03-31T00:08:32;12.00;99.90
8778;DHT22;4425;50.872;4.712;2023-03-31T00:11:45;12.00;99.90
8778;DHT22;4425;50.872;4.712;2023-03-31T00:15:01;12.00;99.90
8778;DHT22;4425;50.872;4.712;2023-03-31T00:18:24;12.00;99.90
8778;DHT22;4425;50.872;4.712;2023-03-31T00:28:50;12.10;99.90
8778;DHT22;4425;50.872;4.712;2023-03-31T00:36:25;12.10;99.90
8778;DHT22;4425;50.872;4.712;2023-03-31T00:39:23;12.10;99.90
8778;DHT22;4425;50.872;4.712;2023-03-31T00:52:31;12.10;99.90
8778;DHT22;4425;50.872;4.712;2023-03-31T00:55:17;12.10;99.90
8778;DHT22;4425;50.872;4.712;2023-03-31T00:58:11;12.10;99.90
8778;DHT22;4425;50.872;4.712;2023-03-31T01:01:04;12.00;99.90
8778;DHT22;4425;50.872;4.712;2023-03-31T01:04:12;12.00;99.90
8778;DHT22;4425;50.872;4.712;2023-03-31T01:07:47;11.90;99.90
8778;DHT22;4425;50.872;4.712;2023-03-31T01:10:53;11.80;99.90
8778;DHT22;4425;50.872;4.712;2023-03-31T01:14:05;11.80;99.90
8778;DHT22;4425;50.872;4.712;2023-03-31T01:16:54;11.80;99.90
8778;DHT22;4425;50.872;4.712;2023-03-31T01:23:47;11.70;99.90
8778;DHT22;4425;50.872;4.712;2023-03-31T01:47:50;11.50;99.90
8778;DHT22;4425;50.872;4.712;2023-03-31T01:50:37;11.40;99.90
8778;DHT22;4425;50.872;4.712;2023-03-31T01:57:30;11.40;99.90
8778;DHT22;4425;50.872;4.712;2023-03-31T02:03:57;11.40;99.90
8778;DHT22;4425;50.872;4.712;2023-03-31T02:06:47;11.40;99.90
8778;DHT22;4425;50.872;4.712;2023-03-31T02:10:30;11.40;99.90
8778;DHT22;4425;50.872;4.712;2023-03-31T02:13:39;11.30;99.90
8778;DHT22;4425;50.872;4.712;2023-03-31T02:17:07;11.30;99.90
8778;DHT22;4425;50.872;4.712;2023-03-31T02:20:41;11.20;99.90
8778;DHT22;4425;50.872;4.712;2023-03-31T02:23:13;11.20;99.90
8778;DHT22;4425;50.872;4.712;2023-03-31T02:25:46;11.10;99.90
8778;DHT22;4425;50.872;4.712;2023-03-31T02:28:19;11.20;99.90
8778;DHT22;4425;50.872;4.712;2023-03-31T02:30:52;11.20;99.90
8778;DHT22;4425;50.872;4.712;2023-03-31T02:33:21;11.20;99.90
8778;DHT22;4425;50.872;4.712;2023-03-31T02:35:50;11.30;99.90
8778;DHT22;4425;50.872;4.712;2023-03-31T02:38:17;11.20;99.90
8778;DHT22;4425;50.872;4.712;2023-03-31T02:40:46;11.30;99.90
8778;DHT22;4425;50.872;4.712;2023-03-31T02:43:13;11.10;99.90
8778;DHT22;4425;50.872;4.712;2023-03-31T02:45:43;11.10;99.90
8778;DHT22;4425;50.872;4.712;2023-03-31T02:48:14;11.10;99.90
8778;DHT22;4425;50.872;4.712;2023-03-31T02:51:34;11.10;99.90
8778;DHT22;4425;50.872;4.712;2023-03-31T02:54:19;11.10;99.90
8778;DHT22;4425;50.872;4.712;2023-03-31T02:57:06;11.00;99.90
8778;DHT22;4425;50.872;4.712;2023-03-31T02:59:43;11.10;99.90
8778;DHT22;4425;50.872;4.712;2023-03-31T03:02:18;11.10;99.90
8778;DHT22;4425;50.872;4.712;2023-03-31T03:05:07;10.90;99.90
8778;DHT22;4425;50.872;4.712;2023-03-31T03:07:44;11.00;99.90
8778;DHT22;4425;50.872;4.712;2023-03-31T03:10:16;10.90;99.90
8778;DHT22;4425;50.872;4.712;2023-03-31T03:12:51;10.90;99.90
8778;DHT22;4425;50.872;4.712;2023-03-31T03:15:24;10.80;99.90
8778;DHT22;4425;50.872;4.712;2023-03-31T03:17:52;10.80;99.90
8778;DHT22;4425;50.872;4.712;2023-03-31T03:20:22;10.90;99.90
8778;DHT22;4425;50.872;4.712;2023-03-31T03:22:50;10.90;99.90
8778;DHT22;4425;50.872;4.712;2023-03-31T03:25:17;10.90;99.90
8778;DHT22;4425;50.872;4.712;2023-03-31T03:27:45;11.00;99.90
8778;DHT22;4425;50.872;4.712;2023-03-31T03:30:13;11.00;99.90
8778;DHT22;4425;50.872;4.712;2023-03-31T03:32:40;11.00;99.90
8778;DHT22;4425;50.872;4.712;2023-03-31T03:35:08;11.00;99.90
8778;DHT22;4425;50.872;4.712;2023-03-31T03:37:36;11.00;99.90
8778;DHT22;4425;50.872;4.712;2023-03-31T03:40:05;10.90;99.90
8778;DHT22;4425;50.872;4.712;2023-03-31T03:42:32;11.00;99.90
8778;DHT22;4425;50.872;4.712;2023-03-31T03:45:00;11.00;99.90
8778;DHT22;4425;50.872;4.712;2023-03-31T03:47:27;11.10;99.90
8778;DHT22;4425;50.872;4.712;2023-03-31T03:49:54;11.10;99.90
8778;DHT22;4425;50.872;4.712;2023-03-31T03:52:21;11.00;99.90
8778;DHT22;4425;50.872;4.712;2023-03-31T03:54:47;11.10;99.90
8778;DHT22;4425;50.872;4.712;2023-03-31T03:57:16;11.10;99.90
8778;DHT22;4425;50.872;4.712;2023-03-31T03:59:43;11.10;99.90
8778;DHT22;4425;50.872;4.712;2023-03-31T04:02:10;11.10;99.90
8778;DHT22;4425;50.872;4.712;2023-03-31T04:04:36;11.20;99.90
8778;DHT22;4425;50.872;4.712;2023-03-31T04:07:04;11.20;99.90
8778;DHT22;4425;50.872;4.712;2023-03-31T04:09:31;11.10;99.90
8778;DHT22;4425;50.872;4.712;2023-03-31T04:11:59;11.10;99.90
8778;DHT22;4425;50.872;4.712;2023-03-31T04:14:28;11.30;99.90
8778;DHT22;4425;50.872;4.712;2023-03-31T04:16:55;11.20;99.90
8778;DHT22;4425;50.872;4.712;2023-03-31T04:19:23;11.20;99.90
8778;DHT22;4425;50.872;4.712;2023-03-31T04:21:50;11.20;99.90
8778;DHT22;4425;50.872;4.712;2023-03-31T04:24:27;11.10;99.90
8778;DHT22;4425;50.872;4.712;2023-03-31T04:26:55;11.20;99.90
8778;DHT22;4425;50.872;4.712;2023-03-31T04:29:22;11.00;99.90
8778;DHT22;4425;50.872;4.712;2023-03-31T04:31:52;11.00;99.90
8778;DHT22;4425;50.872;4.712;2023-03-31T04:34:24;11.00;99.90
8778;DHT22;4425;50.872;4.712;2023-03-31T04:36:59;10.90;99.90
8778;DHT22;4425;50.872;4.712;2023-03-31T04:39:28;10.90;99.90
8778;DHT22;4425;50.872;4.712;2023-03-31T04:41:56;11.10;99.90
8778;DHT22;4425;50.872;4.712;2023-03-31T04:44:23;10.90;99.90
8778;DHT22;4425;50.872;4.712;2023-03-31T04:46:52;10.70;99.90
8778;DHT22;4425;50.872;4.712;2023-03-31T04:49:20;10.70;99.90
8778;DHT22;4425;50.872;4.712;2023-03-31T04:51:47;10.90;99.90
8778;DHT22;4425;50.872;4.712;2023-03-31T04:54:14;10.90;99.90
8778;DHT22;4425;50.872;4.712;2023-03-31T04:56:41;10.80;99.90
8778;DHT22;4425;50.872;4.712;2023-03-31T04:59:08;10.80;99.90
8778;DHT22;4425;50.872;4.712;2023-03-31T05:01:35;10.80;99.90
8778;DHT22;4425;50.872;4.712;2023-03-31T05:04:04;11.00;99.90
8778;DHT22;4425;50.872;4.712;2023-03-31T05:06:31;10.90;99.90
8778;DHT22;4425;50.872;4.712;2023-03-31T05:08:58;10.90;99.90
8778;DHT22;4425;50.872;4.712;2023-03-31T05:11:25;10.90;99.90
8778;DHT22;4425;50.872;4.712;2023-03-31T05:13:53;10.90;99.90
8778;DHT22;4425;50.872;4.712;2023-03-31T05:16:21;11.00;99.90
8778;DHT22;4425;50.872;4.712;2023-03-31T05:18:48;10.90;99.90
8778;DHT22;4425;50.872;4.712;2023-03-31T05:21:18;11.00;99.90
8778;DHT22;4425;50.872;4.712;2023-03-31T05:23:45;11.00;99.90
8778;DHT22;4425;50.872;4.712;2023-03-31T05:26:13;11.00;99.90
8778;DHT22;4425;50.872;4.712;2023-03-31T05:28:40;11.00;99.90
8778;DHT22;4425;50.872;4.712;2023-03-31T05:31:08;11.20;99.90
8778;DHT22;4425;50.872;4.712;2023-03-31T05:33:35;11.20;99.90
8778;DHT22;4425;50.872;4.712;2023-03-31T05:36:06;11.00;99.90
8778;DHT22;4425;50.872;4.712;2023-03-31T05:38:35;11.10;99.90
8778;DHT22;4425;50.872;4.712;2023-03-31T05:41:02;11.10;99.90
8778;DHT22;4425;50.872;4.712;2023-03-31T05:43:29;11.10;99.90
8778;DHT22;4425;50.872;4.712;2023-03-31T05:45:57;11.10;99.90
8778;DHT22;4425;50.872;4.712;2023-03-31T05:48:24;11.20;99.90
8778;DHT22;4425;50.872;4.712;2023-03-31T05:50:54;11.30;99.90
8778;DHT22;4425;50.872;4.712;2023-03-31T05:53:21;11.40;99.90
8778;DHT22;4425;50.872;4.712;2023-03-31T05:55:56;11.10;99.90
8778;DHT22;4425;50.872;4.712;2023-03-31T05:58:23;11.20;99.90
8778;DHT22;4425;50.872;4.712;2023-03-31T06:00:50;11.20;99.90
8778;DHT22;4425;50.872;4.712;2023-03-31T06:03:18;11.20;99.90
8778;DHT22;4425;50.872;4.712;2023-03-31T06:05:46;11.20;99.90
8778;DHT22;4425;50.872;4.712;2023-03-31T06:08:13;11.20;99.90
8778;DHT22;4425;50.872;4.712;2023-03-31T06:10:40;11.40;99.90
8778;DHT22;4425;50.872;4.712;2023-03-31T06:13:08;11.30;99.90
8778;DHT22;4425;50.872;4.712;2023-03-31T06:15:35;11.30;99.90
8778;DHT22;4425;50.872;4.712;2023-03-31T06:18:02;11.30;99.90
8778;DHT22;4425;50.872;4.712;2023-03-31T06:20:31;11.40;99.90
8778;DHT22;4425;50.872;4.712;2023-03-31T06:22:59;11.40;99.90
8778;DHT22;4425;50.872;4.712;2023-03-31T06:25:26;11.40;99.90
8778;DHT22;4425;50.872;4.712;2023-03-31T06:27:53;11.60;99.90
8778;DHT22;4425;50.872;4.712;2023-03-31T06:30:22;11.60;99.90
8778;DHT22;4425;50.872;4.712;2023-03-31T06:32:48;11.70;99.90
8778;DHT22;4425;50.872;4.712;2023-03-31T06:35:16;11.40;99.90
8778;DHT22;4425;50.872;4.712;2023-03-31T06:37:43;11.60;99.90
8778;DHT22;4425;50.872;4.712;2023-03-31T06:40:11;11.60;99.90
8778;DHT22;4425;50.872;4.712;2023-03-31T06:42:39;11.60;99.90
8778;DHT22;4425;50.872;4.712;2023-03-31T06:45:06;11.60;99.90
8778;DHT22;4425;50.872;4.712;2023-03-31T06:47:35;11.70;99.90
8778;DHT22;4425;50.872;4.712;2023-03-31T06:50:03;11.70;99.90
8778;DHT22;4425;50.872;4.712;2023-03-31T06:52:30;11.80;99.90
8778;DHT22;4425;50.872;4.712;2023-03-31T06:54:57;12.00;99.90
8778;DHT22;4425;50.872;4.712;2023-03-31T06:57:25;12.00;99.90
8778;DHT22;4425;50.872;4.712;2023-03-31T06:59:52;12.00;99.90
8778;DHT22;4425;50.872;4.712;2023-03-31T07:02:19;12.10;99.90
8778;DHT22;4425;50.872;4.712;2023-03-31T07:04:48;12.10;99.90
8778;DHT22;4425;50.872;4.712;2023-03-31T07:07:16;12.30;99.90
8778;DHT22;4425;50.872;4.712;2023-03-31T07:09:43;12.40;99.90
8778;DHT22;4425;50.872;4.712;2023-03-31T07:12:10;12.60;99.90
8778;DHT22;4425;50.872;4.712;2023-03-31T07:14:37;12.90;99.90
8778;DHT22;4425;50.872;4.712;2023-03-31T07:17:04;12.90;99.90
8778;DHT22;4425;50.872;4.712;2023-03-31T07:19:31;13.00;99.90
8778;DHT22;4425;50.872;4.712;2023-03-31T07:21:59;12.90;99.90
8778;DHT22;4425;50.872;4.712;2023-03-31T07:24:26;12.80;99.90
8778;DHT22;4425;50.872;4.712;2023-03-31T07:26:55;12.90;99.90
8778;DHT22;4425;50.872;4.712;2023-03-31T07:29:21;12.80;99.90
8778;DHT22;4425;50.872;4.712;2023-03-31T07:31:48;12.80;99.90
8778;DHT22;4425;50.872;4.712;2023-03-31T07:34:16;12.80;99.90
8778;DHT22;4425;50.872;4.712;2023-03-31T07:36:42;12.80;99.90
8778;DHT22;4425;50.872;4.712;2023-03-31T07:39:11;12.80;99.90
8778;DHT22;4425;50.872;4.712;2023-03-31T07:41:38;12.70;99.90
8778;DHT22;4425;50.872;4.712;2023-03-31T07:44:05;12.70;99.90
8778;DHT22;4425;50.872;4.712;2023-03-31T07:46:32;12.60;99.90
8778;DHT22;4425;50.872;4.712;2023-03-31T07:48:59;12.70;99.90
8778;DHT22;4425;50.872;4.712;2023-03-31T07:51:27;12.70;99.90
8778;DHT22;4425;50.872;4.712;2023-03-31T07:53:55;12.80;99.90
8778;DHT22;4425;50.872;4.712;2023-03-31T07:56:24;12.80;99.90
8778;DHT22;4425;50.872;4.712;2023-03-31T07:58:51;12.80;99.90
8778;DHT22;4425;50.872;4.712;2023-03-31T08:01:20;12.80;99.90
8778;DHT22;4425;50.872;4.712;2023-03-31T08:03:50;12.80;99.90
8778;DHT22;4425;50.872;4.712;2023-03-31T08:06:20;12.80;99.90
8778;DHT22;4425;50.872;4.712;2023-03-31T08:08:49;12.80;99.90
8778;DHT22;4425;50.872;4.712;2023-03-31T08:11:17;12.70;99.90
8778;DHT22;4425;50.872;4.712;2023-03-31T08:13:47;12.80;99.90
8778;DHT22;4425;50.872;4.712;2023-03-31T08:16:13;12.80;99.90
8778;DHT22;4425;50.872;4.712;2023-03-31T08:18:41;12.80;99.90
8778;DHT22;4425;50.872;4.712;2023-03-31T08:21:08;12.80;99.90
8778;DHT22;4425;50.872;4.712;2023-03-31T08:23:35;12.80;99.90
8778;DHT22;4425;50.872;4.712;2023-03-31T08:26:08;12.80;99.90
8778;DHT22;4425;50.872;4.712;2023-03-31T08:28:35;12.90;99.90
8778;DHT22;4425;50.872;4.712;2023-03-31T08:31:05;13.00;99.90
8778;DHT22;4425;50.872;4.712;2023-03-31T08:33:32;13.00;99.90
8778;DHT22;4425;50.872;4.712;2023-03-31T08:36:01;13.00;99.90
8778;DHT22;4425;50.872;4.712;2023-03-31T08:38:29;13.10;99.90
8778;DHT22;4425;50.872;4.712;2023-03-31T08:41:01;13.10;99.90
8778;DHT22;4425;50.872;4.712;2023-03-31T08:43:31;13.10;99.90
8778;DHT22;4425;50.872;4.712;2023-03-31T08:45:59;13.20;99.90
8778;DHT22;4425;50.872;4.712;2023-03-31T08:48:31;13.10;99.90
8778;DHT22;4425;50.872;4.712;2023-03-31T08:51:08;13.30;99.90
8778;DHT22;4425;50.872;4.712;2023-03-31T08:53:41;13.30;99.90
8778;DHT22;4425;50.872;4.712;2023-03-31T08:56:14;13.30;99.90
8778;DHT22;4425;50.872;4.712;2023-03-31T08:58:43;13.20;99.90
8778;DHT22;4425;50.872;4.712;2023-03-31T09:01:21;13.10;99.90
8778;DHT22;4425;50.872;4.712;2023-03-31T09:04:04;13.10;99.90
8778;DHT22;4425;50.872;4.712;2023-03-31T09:06:38;13.10;99.90
8778;DHT22;4425;50.872;4.712;2023-03-31T09:09:10;13.30;99.90
8778;DHT22;4425;50.872;4.712;2023-03-31T09:11:43;13.40;99.90
8778;DHT22;4425;50.872;4.712;2023-03-31T09:14:25;13.40;99.90
8778;DHT22;4425;50.872;4.712;2023-03-31T09:17:05;13.30;99.90
8778;DHT22;4425;50.872;4.712;2023-03-31T09:19:40;13.50;99.90
8778;DHT22;4425;50.872;4.712;2023-03-31T09:22:13;13.40;99.90
8778;DHT22;4425;50.872;4.712;2023-03-31T09:24:48;13.40;99.90
8778;DHT22;4425;50.872;4.712;2023-03-31T09:27:17;13.40;99.90
8778;DHT22;4425;50.872;4.712;2023-03-31T09:29:47;13.30;99.90
8778;DHT22;4425;50.872;4.712;2023-03-31T09:32:17;13.30;99.90
8778;DHT22;4425;50.872;4.712;2023-03-31T09:34:49;13.10;99.90
8778;DHT22;4425;50.872;4.712;2023-03-31T09:37:17;13.10;99.90
8778;DHT22;4425;50.872;4.712;2023-03-31T09:39:44;13.10;99.90
8778;DHT22;4425;50.872;4.712;2023-03-31T09:42:12;13.10;99.90
8778;DHT22;4425;50.872;4.712;2023-03-31T09:44:42;13.30;99.90
8778;DHT22;4425;50.872;4.712;2023-03-31T09:47:15;13.40;99.90
8778;DHT22;4425;50.872;4.712;2023-03-31T09:49:45;13.60;99.90
8778;DHT22;4425;50.872;4.712;2023-03-31T09:52:18;13.90;99.90
8778;DHT22;4425;50.872;4.712;2023-03-31T09:54:49;13.90;99.90
8778;DHT22;4425;50.872;4.712;2023-03-31T09:57:23;14.00;99.90
8778;DHT22;4425;50.872;4.712;2023-03-31T09:59:52;14.10;99.90
8778;DHT22;4425;50.872;4.712;2023-03-31T10:02:34;14.10;99.90
8778;DHT22;4425;50.872;4.712;2023-03-31T10:05:05;14.20;99.90
8778;DHT22;4425;50.872;4.712;2023-03-31T10:07:33;14.20;99.90
8778;DHT22;4425;50.872;4.712;2023-03-31T10:10:01;14.00;99.90
8778;DHT22;4425;50.872;4.712;2023-03-31T10:12:29;14.20;99.90
8778;DHT22;4425;50.872;4.712;2023-03-31T10:15:13;14.10;99.90
8778;DHT22;4425;50.872;4.712;2023-03-31T10:17:43;14.00;99.90
8778;DHT22;4425;50.872;4.712;2023-03-31T10:20:21;13.80;99.90
8778;DHT22;4425;50.872;4.712;2023-03-31T10:22:53;13.70;99.90
8778;DHT22;4425;50.872;4.712;2023-03-31T10:25:22;13.50;99.90
8778;DHT22;4425;50.872;4.712;2023-03-31T10:27:55;13.50;99.90
8778;DHT22;4425;50.872;4.712;2023-03-31T10:30:24;13.60;99.90
8778;DHT22;4425;50.872;4.712;2023-03-31T10:32:52;13.80;99.90
8778;DHT22;4425;50.872;4.712;2023-03-31T10:35:26;13.80;99.90
8778;DHT22;4425;50.872;4.712;2023-03-31T10:37:58;13.80;99.90
8778;DHT22;4425;50.872;4.712;2023-03-31T10:40:27;13.80;99.90
8778;DHT22;4425;50.872;4.712;2023-03-31T10:43:02;13.90;99.90
8778;DHT22;4425;50.872;4.712;2023-03-31T10:45:30;14.00;99.90
8778;DHT22;4425;50.872;4.712;2023-03-31T10:48:02;14.00;99.90
8778;DHT22;4425;50.872;4.712;2023-03-31T10:50:32;14.00;99.90
8778;DHT22;4425;50.872;4.712;2023-03-31T10:53:04;14.10;99.90
8778;DHT22;4425;50.872;4.712;2023-03-31T10:55:35;14.20;99.90
8778;DHT22;4425;50.872;4.712;2023-03-31T10:58:26;14.10;99.90
8778;DHT22;4425;50.872;4.712;2023-03-31T11:01:05;14.00;99.90
8778;DHT22;4425;50.872;4.712;2023-03-31T11:03:49;14.20;99.90
8778;DHT22;4425;50.872;4.712;2023-03-31T11:06:26;14.20;99.90
8778;DHT22;4425;50.872;4.712;2023-03-31T11:09:09;14.10;99.90
8778;DHT22;4425;50.872;4.712;2023-03-31T11:11:52;14.20;99.90
8778;DHT22;4425;50.872;4.712;2023-03-31T11:14:27;14.00;99.90
8778;DHT22;4425;50.872;4.712;2023-03-31T11:17:01;14.00;99.90
8778;DHT22;4425;50.872;4.712;2023-03-31T11:19:37;13.80;99.90
8778;DHT22;4425;50.872;4.712;2023-03-31T11:22:14;13.50;99.90
8778;DHT22;4425;50.872;4.712;2023-03-31T11:25:06;13.40;99.90
8778;DHT22;4425;50.872;4.712;2023-03-31T11:27:42;13.50;99.90
8778;DHT22;4425;50.872;4.712;2023-03-31T11:30:20;13.40;99.90
8778;DHT22;4425;50.872;4.712;2023-03-31T11:33:04;13.40;99.90
8778;DHT22;4425;50.872;4.712;2023-03-31T11:35:44;13.40;99.90
8778;DHT22;4425;50.872;4.712;2023-03-31T11:41:19;13.70;99.90
8778;DHT22;4425;50.872;4.712;2023-03-31T11:43:48;13.80;99.90
8778;DHT22;4425;50.872;4.712;2023-03-31T11:46:19;13.90;99.90
8778;DHT22;4425;50.872;4.712;2023-03-31T11:48:51;14.00;99.90
8778;DHT22;4425;50.872;4.712;2023-03-31T11:51:24;13.90;99.90
8778;DHT22;4425;50.872;4.712;2023-03-31T11:53:57;14.20;99.90
8778;DHT22;4425;50.872;4.712;2023-03-31T11:56:32;14.30;99.90
8778;DHT22;4425;50.872;4.712;2023-03-31T11:59:02;14.50;99.90
8778;DHT22;4425;50.872;4.712;2023-03-31T12:01:35;14.80;99.90
8778;DHT22;4425;50.872;4.712;2023-03-31T12:04:05;14.70;99.90
8778;DHT22;4425;50.872;4.712;2023-03-31T12:06:39;14.80;99.90
8778;DHT22;4425;50.872;4.712;2023-03-31T12:09:14;14.70;99.90
8778;DHT22;4425;50.872;4.712;2023-03-31T12:11:47;14.70;99.90
8778;DHT22;4425;50.872;4.712;2023-03-31T12:14:26;14.70;99.90
8778;DHT22;4425;50.872;4.712;2023-03-31T12:16:56;14.60;99.90
8778;DHT22;4425;50.872;4.712;2023-03-31T12:19:27;14.60;99.90
8778;DHT22;4425;50.872;4.712;2023-03-31T12:21:59;14.60;99.90
8778;DHT22;4425;50.872;4.712;2023-03-31T12:24:31;14.50;99.90
8778;DHT22;4425;50.872;4.712;2023-03-31T12:27:04;14.20;99.90
8778;DHT22;4425;50.872;4.712;2023-03-31T12:29:36;14.00;99.90
8778;DHT22;4425;50.872;4.712;2023-03-31T12:32:07;13.80;99.90
8778;DHT22;4425;50.872;4.712;2023-03-31T12:34:39;13.60;99.90
8778;DHT22;4425;50.872;4.712;2023-03-31T12:37:37;13.50;99.90
8778;DHT22;4425;50.872;4.712;2023-03-31T12:40:16;13.50;99.90
8778;DHT22;4425;50.872;4.712;2023-03-31T12:42:58;13.50;99.90
8778;DHT22;4425;50.872;4.712;2023-03-31T12:45:30;13.30;99.90
8778;DHT22;4425;50.872;4.712;2023-03-31T12:48:24;13.40;99.90
8778;DHT22;4425;50.872;4.712;2023-03-31T12:51:13;13.40;99.90
8778;DHT22;4425;50.872;4.712;2023-03-31T12:53:54;13.50;99.90
8778;DHT22;4425;50.872;4.712;2023-03-31T12:57:04;13.60;99.90
8778;DHT22;4425;50.872;4.712;2023-03-31T12:59:39;13.60;99.90
8778;DHT22;4425;50.872;4.712;2023-03-31T13:02:23;13.60;99.90
8778;DHT22;4425;50.872;4.712;2023-03-31T13:04:51;13.50;99.90
8778;DHT22;4425;50.872;4.712;2023-03-31T13:07:40;13.50;99.90
8778;DHT22;4425;50.872;4.712;2023-03-31T13:10:29;13.50;99.90
8778;DHT22;4425;50.872;4.712;2023-03-31T13:13:03;13.50;99.90
8778;DHT22;4425;50.872;4.712;2023-03-31T13:15:31;13.40;99.90
8778;DHT22;4425;50.872;4.712;2023-03-31T13:18:00;13.40;99.90
8778;DHT22;4425;50.872;4.712;2023-03-31T13:20:32;13.40;99.90
8778;DHT22;4425;50.872;4.712;2023-03-31T13:23:12;13.50;99.90
8778;DHT22;4425;50.872;4.712;2023-03-31T13:25:45;13.80;99.90
8778;DHT22;4425;50.872;4.712;2023-03-31T13:28:32;13.60;99.90
8778;DHT22;4425;50.872;4.712;2023-03-31T13:31:00;13.70;99.90
8778;DHT22;4425;50.872;4.712;2023-03-31T13:33:37;13.70;99.90
8778;DHT22;4425;50.872;4.712;2023-03-31T13:36:21;13.60;99.90
8778;DHT22;4425;50.872;4.712;2023-03-31T13:39:05;13.40;99.90
8778;DHT22;4425;50.872;4.712;2023-03-31T13:41:46;13.40;99.90
8778;DHT22;4425;50.872;4.712;2023-03-31T13:44:37;13.30;99.90
8778;DHT22;4425;50.872;4.712;2023-03-31T13:47:27;13.30;99.90
8778;DHT22;4425;50.872;4.712;2023-03-31T13:50:14;13.40;99.90
8778;DHT22;4425;50.872;4.712;2023-03-31T13:52:48;13.30;99.90
8778;DHT22;4425;50.872;4.712;2023-03-31T13:58:47;13.40;99.90
8778;DHT22;4425;50.872;4.712;2023-03-31T14:01:43;13.50;99.90
8778;DHT22;4425;50.872;4.712;2023-03-31T14:07:07;13.50;99.90
8778;DHT22;4425;50.872;4.712;2023-03-31T14:09:35;13.60;99.90
8778;DHT22;4425;50.872;4.712;2023-03-31T14:12:19;13.30;99.90
8778;DHT22;4425;50.872;4.712;2023-03-31T14:14:46;13.20;99.90
8778;DHT22;4425;50.872;4.712;2023-03-31T14:17:15;13.10;99.90
8778;DHT22;4425;50.872;4.712;2023-03-31T14:22:48;13.00;99.90
8778;DHT22;4425;50.872;4.712;2023-03-31T14:25:25;13.00;99.90
8778;DHT22;4425;50.872;4.712;2023-03-31T14:28:02;13.00;99.90
8778;DHT22;4425;50.872;4.712;2023-03-31T14:30:38;12.90;99.90
8778;DHT22;4425;50.872;4.712;2023-03-31T14:33:20;12.90;99.90
8778;DHT22;4425;50.872;4.712;2023-03-31T14:35:54;12.90;99.90
8778;DHT22;4425;50.872;4.712;2023-03-31T14:38:24;12.90;99.90
8778;DHT22;4425;50.872;4.712;2023-03-31T14:40:54;13.00;99.90
8778;DHT22;4425;50.872;4.712;2023-03-31T14:43:27;13.00;99.90
8778;DHT22;4425;50.872;4.712;2023-03-31T14:45:59;13.20;99.90
8778;DHT22;4425;50.872;4.712;2023-03-31T14:48:28;13.30;99.90
8778;DHT22;4425;50.872;4.712;2023-03-31T14:50:57;13.30;99.90
8778;DHT22;4425;50.872;4.712;2023-03-31T14:53:25;13.40;99.90
8778;DHT22;4425;50.872;4.712;2023-03-31T14:55:59;13.40;99.90
8778;DHT22;4425;50.872;4.712;2023-03-31T14:58:30;13.30;99.90
8778;DHT22;4425;50.872;4.712;2023-03-31T15:01:01;13.30;99.90
8778;DHT22;4425;50.872;4.712;2023-03-31T15:03:36;13.20;99.90
8778;DHT22;4425;50.872;4.712;2023-03-31T15:06:06;13.10;99.90
8778;DHT22;4425;50.872;4.712;2023-03-31T15:08:34;13.10;99.90
8778;DHT22;4425;50.872;4.712;2023-03-31T15:11:05;13.10;99.90
8778;DHT22;4425;50.872;4.712;2023-03-31T15:13:34;13.10;99.90
8778;DHT22;4425;50.872;4.712;2023-03-31T15:16:20;13.10;99.90
8778;DHT22;4425;50.872;4.712;2023-03-31T15:18:56;12.90;99.90
8778;DHT22;4425;50.872;4.712;2023-03-31T15:21:25;12.80;99.90
8778;DHT22;4425;50.872;4.712;2023-03-31T15:23:55;12.80;99.90
8778;DHT22;4425;50.872;4.712;2023-03-31T15:26:26;12.80;99.90
8778;DHT22;4425;50.872;4.712;2023-03-31T15:28:57;12.90;99.90
8778;DHT22;4425;50.872;4.712;2023-03-31T15:31:25;13.00;99.90
8778;DHT22;4425;50.872;4.712;2023-03-31T15:33:52;13.00;99.90
8778;DHT22;4425;50.872;4.712;2023-03-31T15:36:21;13.10;99.90
8778;DHT22;4425;50.872;4.712;2023-03-31T15:38:54;13.00;99.90
8778;DHT22;4425;50.872;4.712;2023-03-31T15:41:21;12.90;99.90
8778;DHT22;4425;50.872;4.712;2023-03-31T15:44:03;12.80;99.90
8778;DHT22;4425;50.872;4.712;2023-03-31T15:46:48;12.80;99.90
8778;DHT22;4425;50.872;4.712;2023-03-31T15:49:19;12.80;99.90
8778;DHT22;4425;50.872;4.712;2023-03-31T15:51:50;12.80;99.90
8778;DHT22;4425;50.872;4.712;2023-03-31T15:54:34;12.90;99.90
8778;DHT22;4425;50.872;4.712;2023-03-31T15:57:02;12.80;99.90
8778;DHT22;4425;50.872;4.712;2023-03-31T15:59:31;12.80;99.90
8778;DHT22;4425;50.872;4.712;2023-03-31T16:02:11;12.80;99.90
8778;DHT22;4425;50.872;4.712;2023-03-31T16:04:39;12.80;99.90
8778;DHT22;4425;50.872;4.712;2023-03-31T16:07:13;12.70;99.90
8778;DHT22;4425;50.872;4.712;2023-03-31T16:09:47;12.70;99.90
8778;DHT22;4425;50.872;4.712;2023-03-31T16:12:20;12.70;99.90
8778;DHT22;4425;50.872;4.712;2023-03-31T16:14:52;12.70;99.90
8778;DHT22;4425;50.872;4.712;2023-03-31T16:17:27;12.70;99.90
8778;DHT22;4425;50.872;4.712;2023-03-31T16:19:59;12.60;99.90
8778;DHT22;4425;50.872;4.712;2023-03-31T16:22:35;12.70;99.90
8778;DHT22;4425;50.872;4.712;2023-03-31T16:25:09;12.70;99.90
8778;DHT22;4425;50.872;4.712;2023-03-31T16:27:39;12.70;99.90
8778;DHT22;4425;50.872;4.712;2023-03-31T16:30:09;12.70;99.90
8778;DHT22;4425;50.872;4.712;2023-03-31T16:32:38;12.70;99.90
8778;DHT22;4425;50.872;4.712;2023-03-31T16:35:06;12.60;99.90
8778;DHT22;4425;50.872;4.712;2023-03-31T16:37:34;12.60;99.90
8778;DHT22;4425;50.872;4.712;2023-03-31T16:40:03;12.70;99.90
8778;DHT22;4425;50.872;4.712;2023-03-31T16:42:30;12.50;99.90
8778;DHT22;4425;50.872;4.712;2023-03-31T16:44:57;12.60;99.90
8778;DHT22;4425;50.872;4.712;2023-03-31T16:47:24;12.50;99.90
8778;DHT22;4425;50.872;4.712;2023-03-31T16:49:51;12.40;99.90
8778;DHT22;4425;50.872;4.712;2023-03-31T16:52:18;12.20;99.90
8778;DHT22;4425;50.872;4.712;2023-03-31T16:54:47;12.20;99.90
8778;DHT22;4425;50.872;4.712;2023-03-31T16:57:16;12.30;99.90
8778;DHT22;4425;50.872;4.712;2023-03-31T16:59:43;12.20;99.90
8778;DHT22;4425;50.872;4.712;2023-03-31T17:02:10;12.40;99.90
8778;DHT22;4425;50.872;4.712;2023-03-31T17:04:37;12.30;99.90
8778;DHT22;4425;50.872;4.712;2023-03-31T17:07:04;12.30;99.90
8778;DHT22;4425;50.872;4.712;2023-03-31T17:09:31;12.20;99.90
8778;DHT22;4425;50.872;4.712;2023-03-31T17:12:00;12.00;99.90
8778;DHT22;4425;50.872;4.712;2023-03-31T17:14:27;11.90;99.90
8778;DHT22;4425;50.872;4.712;2023-03-31T17:16:54;11.80;99.90
8778;DHT22;4425;50.872;4.712;2023-03-31T17:19:25;11.70;99.90
8778;DHT22;4425;50.872;4.712;2023-03-31T17:21:53;11.60;99.90
8778;DHT22;4425;50.872;4.712;2023-03-31T17:24:20;11.40;99.90
8778;DHT22;4425;50.872;4.712;2023-03-31T17:26:47;11.40;99.90
8778;DHT22;4425;50.872;4.712;2023-03-31T17:29:16;11.40;99.90
8778;DHT22;4425;50.872;4.712;2023-03-31T17:31:43;11.30;99.90
8778;DHT22;4425;50.872;4.712;2023-03-31T17:34:10;11.20;99.90
8778;DHT22;4425;50.872;4.712;2023-03-31T17:36:37;11.10;99.90
8778;DHT22;4425;50.872;4.712;2023-03-31T17:39:06;11.20;99.90
8778;DHT22;4425;50.872;4.712;2023-03-31T17:41:33;11.00;99.90
8778;DHT22;4425;50.872;4.712;2023-03-31T17:44:00;11.10;99.90
8778;DHT22;4425;50.872;4.712;2023-03-31T17:46:34;11.10;99.90
8778;DHT22;4425;50.872;4.712;2023-03-31T17:49:01;11.00;99.90
8778;DHT22;4425;50.872;4.712;2023-03-31T17:51:28;11.00;99.90
8778;DHT22;4425;50.872;4.712;2023-03-31T17:53:58;11.00;99.90
8778;DHT22;4425;50.872;4.712;2023-03-31T17:56:27;10.90;99.90